Time;durP1;ratioP1;P1;durP2;ratioP2;P2;SDS_P1;SDS_P2;PMS_P1;PMS_P2;Temp;Humidity;BMP_temperature;BMP_pressure;BME280_temperature;BME280_humidity;BME280_pressure;Samples;Min_cycle;Max_cycle;Signal;HPM_P1;HPM_P2
2022/03/24 00:01:57;;;;;;;68.07;24.33;;;;;;;;;;4971266;28;20484;-63
2022/03/24 00:04:22;;;;;;;71.55;25.58;;;;;;;;;;4970526;28;20384;-63
2022/03/24 00:06:48;;;;;;;76.20;25.70;;;;;;;;;;4953860;28;20349;-63
2022/03/24 00:09:13;;;;;;;67.60;23.58;;;;;;;;;;4970693;28;20314;-62
2022/03/24 00:11:40;;;;;;;68.70;24.13;;;;;;;;;;4970769;28;20484;-64
2022/03/24 00:14:06;;;;;;;64.75;24.30;;;;;;;;;;4971743;28;20460;-63
2022/03/24 00:16:31;;;;;;;63.35;24.05;;;;;;;;;;4970614;28;20433;-64
2022/03/24 00:18:56;;;;;;;67.47;25.35;;;;;;;;;;4970984;28;20368;-63
2022/03/24 00:21:24;;;;;;;62.22;23.13;;;;;;;;;;4970675;28;20436;-63
2022/03/24 00:23:49;;;;;;;71.95;23.85;;;;;;;;;;4970437;28;20064;-63
2022/03/24 00:26:15;;;;;;;70.13;25.05;;;;;;;;;;4970335;28;20060;-62
2022/03/24 00:28:40;;;;;;;64.90;24.33;;;;;;;;;;4970415;28;20409;-64
2022/03/24 00:31:05;;;;;;;61.83;24.23;;;;;;;;;;4971225;28;20479;-63
2022/03/24 00:33:32;;;;;;;63.38;23.50;;;;;;;;;;4970551;28;20033;-63
2022/03/24 00:35:57;;;;;;;61.20;24.42;;;;;;;;;;4971857;28;20432;-63
2022/03/24 00:38:23;;;;;;;58.67;21.83;;;;;;;;;;4970008;28;20218;-63
2022/03/24 00:40:48;;;;;;;59.72;23.13;;;;;;;;;;4971870;28;20379;-63
2022/03/24 00:43:14;;;;;;;58.42;23.10;;;;;;;;;;4970406;28;20367;-63
2022/03/24 00:45:42;;;;;;;58.83;22.83;;;;;;;;;;4969852;28;20108;-62
2022/03/24 00:48:08;;;;;;;60.30;22.17;;;;;;;;;;4970160;28;20375;-63
2022/03/24 00:50:35;;;;;;;69.65;23.02;;;;;;;;;;4969935;28;20655;-63
2022/03/24 00:53:00;;;;;;;64.10;23.02;;;;;;;;;;4970084;28;20338;-62
2022/03/24 00:55:26;;;;;;;58.80;23.33;;;;;;;;;;4952130;28;20375;-63
2022/03/24 00:57:53;;;;;;;53.22;21.67;;;;;;;;;;4969971;28;20440;-63
2022/03/24 01:00:20;;;;;;;61.50;23.00;;;;;;;;;;4972881;28;20032;-63
2022/03/24 01:02:48;;;;;;;61.55;21.67;;;;;;;;;;4978178;28;20467;-63
2022/03/24 01:05:17;;;;;;;55.13;21.65;;;;;;;;;;4970107;28;20421;-62
2022/03/24 01:07:43;;;;;;;62.00;22.25;;;;;;;;;;4970545;28;20368;-63
2022/03/24 01:10:10;;;;;;;54.95;21.80;;;;;;;;;;4969725;28;20042;-63
2022/03/24 01:12:36;;;;;;;52.38;22.05;;;;;;;;;;4969695;28;20352;-63
2022/03/24 01:15:04;;;;;;;50.38;19.55;;;;;;;;;;4970896;28;20396;-63
2022/03/24 01:17:31;;;;;;;56.40;21.58;;;;;;;;;;4969450;28;20048;-63
2022/03/24 01:19:57;;;;;;;52.38;20.67;;;;;;;;;;4969370;28;20334;-63
2022/03/24 01:22:22;;;;;;;52.75;21.75;;;;;;;;;;4969767;28;20052;-63
2022/03/24 01:24:47;;;;;;;53.40;20.60;;;;;;;;;;4969384;28;20411;-63
2022/03/24 01:27:14;;;;;;;53.63;20.88;;;;;;;;;;4969625;28;20437;-62
2022/03/24 01:29:40;;;;;;;49.47;20.20;;;;;;;;;;4970563;28;20038;-63
2022/03/24 01:32:06;;;;;;;48.60;19.83;;;;;;;;;;4969818;28;20464;-62
2022/03/24 01:34:31;;;;;;;46.80;19.15;;;;;;;;;;4969599;28;20345;-63
2022/03/24 01:36:56;;;;;;;56.22;20.73;;;;;;;;;;4969228;28;20544;-64
2022/03/24 01:39:22;;;;;;;57.72;21.10;;;;;;;;;;4968683;28;20484;-63
2022/03/24 01:41:48;;;;;;;60.47;20.83;;;;;;;;;;4969451;28;20449;-63
2022/03/24 01:44:16;;;;;;;49.50;19.20;;;;;;;;;;4969963;28;20405;-63
2022/03/24 01:47:07;;;;;;;50.47;19.60;;;;;;;;;;4969807;28;20486;-62
2022/03/24 01:49:35;;;;;;;55.97;19.85;;;;;;;;;;4969219;28;20337;-62
2022/03/24 01:52:01;;;;;;;50.90;20.08;;;;;;;;;;4970431;28;20344;-62
2022/03/24 01:54:30;;;;;;;48.03;19.63;;;;;;;;;;4970625;28;20368;-62
2022/03/24 01:56:56;;;;;;;46.42;18.80;;;;;;;;;;4973700;28;20511;-63
2022/03/24 01:59:21;;;;;;;47.40;19.85;;;;;;;;;;4973367;28;20419;-63
2022/03/24 02:01:47;;;;;;;52.45;19.13;;;;;;;;;;4974521;28;20495;-62
2022/03/24 02:04:14;;;;;;;47.78;19.05;;;;;;;;;;4973404;28;20353;-63
2022/03/24 02:06:39;;;;;;;51.08;19.85;;;;;;;;;;4973680;28;20328;-62
2022/03/24 02:09:05;;;;;;;56.00;19.98;;;;;;;;;;4972955;28;20333;-64
2022/03/24 02:11:30;;;;;;;51.83;18.90;;;;;;;;;;4973218;28;20421;-62
2022/03/24 02:13:57;;;;;;;48.17;19.80;;;;;;;;;;4972736;28;20472;-63
2022/03/24 02:16:27;;;;;;;51.30;20.25;;;;;;;;;;4955326;28;20318;-63
2022/03/24 02:18:54;;;;;;;47.35;19.77;;;;;;;;;;4972329;28;20041;-63
2022/03/24 02:21:19;;;;;;;53.83;20.42;;;;;;;;;;4972705;28;20025;-62
2022/03/24 02:23:45;;;;;;;44.28;17.98;;;;;;;;;;4974023;28;20124;-62
2022/03/24 02:26:11;;;;;;;43.70;19.25;;;;;;;;;;4973629;28;20029;-63
2022/03/24 02:28:36;;;;;;;50.40;20.05;;;;;;;;;;4972513;28;20116;-63
2022/03/24 02:31:04;;;;;;;42.63;18.83;;;;;;;;;;4972813;28;20055;-63
2022/03/24 02:33:29;;;;;;;46.20;19.15;;;;;;;;;;4972927;28;20429;-63
2022/03/24 02:35:55;;;;;;;50.58;18.38;;;;;;;;;;4973212;28;20350;-63
2022/03/24 02:38:20;;;;;;;52.05;18.92;;;;;;;;;;4972287;28;20353;-62
2022/03/24 02:40:48;;;;;;;40.78;17.67;;;;;;;;;;4972988;28;20421;-62
2022/03/24 02:43:17;;;;;;;44.25;18.98;;;;;;;;;;4972481;28;20524;-63
2022/03/24 02:45:42;;;;;;;43.53;17.70;;;;;;;;;;4971836;28;20345;-62
2022/03/24 02:48:09;;;;;;;48.80;20.23;;;;;;;;;;4972194;28;20056;-63
2022/03/24 02:50:34;;;;;;;40.63;16.90;;;;;;;;;;4972225;28;20467;-62
2022/03/24 02:53:00;;;;;;;48.38;18.50;;;;;;;;;;4972607;28;20416;-63
2022/03/24 02:55:26;;;;;;;46.70;19.27;;;;;;;;;;4973355;28;20500;-62
2022/03/24 02:57:51;;;;;;;43.80;18.15;;;;;;;;;;4972853;28;20408;-63
2022/03/24 03:00:16;;;;;;;46.22;19.33;;;;;;;;;;4972045;28;20429;-63
2022/03/24 03:02:42;;;;;;;47.53;18.58;;;;;;;;;;4972095;28;20515;-63
2022/03/24 03:05:07;;;;;;;39.70;17.08;;;;;;;;;;4971972;28;20325;-63
2022/03/24 03:07:33;;;;;;;40.97;16.80;;;;;;;;;;4972133;28;20391;-63
2022/03/24 03:09:58;;;;;;;50.90;18.77;;;;;;;;;;4972422;28;20072;-63
2022/03/24 03:12:27;;;;;;;48.45;18.48;;;;;;;;;;4972524;28;20365;-63
2022/03/24 03:14:53;;;;;;;45.58;18.38;;;;;;;;;;4971918;28;20522;-63
2022/03/24 03:17:19;;;;;;;41.05;18.63;;;;;;;;;;4971321;28;20515;-65
2022/03/24 03:19:45;;;;;;;51.22;19.35;;;;;;;;;;4971701;28;20468;-63
2022/03/24 03:22:12;;;;;;;47.38;18.73;;;;;;;;;;4971609;28;20048;-63
2022/03/24 03:24:39;;;;;;;37.35;16.42;;;;;;;;;;4972317;28;20429;-64
2022/03/24 03:27:05;;;;;;;49.75;18.70;;;;;;;;;;4971692;28;20065;-63
2022/03/24 03:29:30;;;;;;;43.80;18.05;;;;;;;;;;4971739;28;20033;-62
2022/03/24 03:31:56;;;;;;;50.33;17.77;;;;;;;;;;4971360;28;20040;-62
2022/03/24 03:34:24;;;;;;;43.25;18.23;;;;;;;;;;4971553;28;20412;-63
2022/03/24 03:36:51;;;;;;;43.83;18.50;;;;;;;;;;4971145;28;20455;-63
2022/03/24 03:39:16;;;;;;;40.85;17.65;;;;;;;;;;4971561;28;20799;-63
2022/03/24 03:41:42;;;;;;;50.83;18.02;;;;;;;;;;4971682;28;20432;-63
2022/03/24 03:44:08;;;;;;;46.33;18.15;;;;;;;;;;4972503;28;20503;-63
2022/03/24 03:46:34;;;;;;;42.88;17.77;;;;;;;;;;4971147;28;20443;-63
2022/03/24 03:49:00;;;;;;;40.17;17.83;;;;;;;;;;4971486;28;20107;-63
2022/03/24 03:51:27;;;;;;;45.95;17.17;;;;;;;;;;4970952;28;20424;-63
2022/03/24 03:53:53;;;;;;;48.83;17.92;;;;;;;;;;4970919;28;20025;-62
2022/03/24 03:56:18;;;;;;;40.25;17.58;;;;;;;;;;4971582;28;20475;-62
2022/03/24 03:58:44;;;;;;;40.63;15.95;;;;;;;;;;4972255;28;20052;-62
2022/03/24 04:01:09;;;;;;;37.50;17.73;;;;;;;;;;4970688;28;20452;-65
2022/03/24 04:03:39;;;;;;;40.67;17.10;;;;;;;;;;4972782;28;20459;-63
2022/03/24 04:06:12;;;;;;;38.83;17.67;;;;;;;;;;4970608;28;20450;-62
2022/03/24 04:08:39;;;;;;;41.35;18.40;;;;;;;;;;4971345;28;20490;-63
2022/03/24 04:11:07;;;;;;;43.13;17.27;;;;;;;;;;4970782;28;20332;-63
2022/03/24 04:13:34;;;;;;;41.40;16.67;;;;;;;;;;4970514;28;20514;-62
2022/03/24 04:16:00;;;;;;;40.85;18.00;;;;;;;;;;4970636;28;20410;-63
2022/03/24 04:18:25;;;;;;;41.00;18.23;;;;;;;;;;4969408;28;20417;-63
2022/03/24 04:20:51;;;;;;;45.33;18.92;;;;;;;;;;4970653;28;20332;-62
2022/03/24 04:23:17;;;;;;;41.15;16.90;;;;;;;;;;4970283;28;20503;-62
2022/03/24 04:25:42;;;;;;;40.75;15.50;;;;;;;;;;4971824;28;20436;-62
2022/03/24 04:28:08;;;;;;;40.38;17.15;;;;;;;;;;4970962;28;20363;-62
2022/03/24 04:30:34;;;;;;;50.47;19.30;;;;;;;;;;4970460;28;20456;-62
2022/03/24 04:33:00;;;;;;;38.08;16.55;;;;;;;;;;4970334;28;20314;-62
2022/03/24 04:35:26;;;;;;;40.47;17.77;;;;;;;;;;4970386;28;20099;-63
2022/03/24 04:37:51;;;;;;;40.15;16.13;;;;;;;;;;4970524;28;20049;-63
2022/03/24 04:40:25;;;;;;;45.50;18.60;;;;;;;;;;5006724;28;20847;-64
2022/03/24 04:42:52;;;;;;;36.97;15.63;;;;;;;;;;5006870;28;20309;-63
2022/03/24 04:45:19;;;;;;;44.60;16.35;;;;;;;;;;5006425;28;20428;-64
2022/03/24 04:47:45;;;;;;;35.65;17.02;;;;;;;;;;5005818;28;20439;-64
2022/03/24 04:50:11;;;;;;;36.10;15.25;;;;;;;;;;5006022;28;20510;-64
2022/03/24 04:52:36;;;;;;;37.78;16.08;;;;;;;;;;5006622;28;20467;-63
2022/03/24 04:55:02;;;;;;;34.15;14.93;;;;;;;;;;5006112;28;20444;-64
2022/03/24 04:57:28;;;;;;;41.20;15.80;;;;;;;;;;5004772;28;20120;-64
2022/03/24 04:59:53;;;;;;;35.83;14.80;;;;;;;;;;5005679;28;20353;-63
2022/03/24 05:02:19;;;;;;;41.83;16.25;;;;;;;;;;5006238;28;20416;-64
2022/03/24 05:04:45;;;;;;;35.72;15.18;;;;;;;;;;5006721;28;20021;-65
2022/03/24 05:07:10;;;;;;;38.03;14.68;;;;;;;;;;5006804;28;20517;-64
2022/03/24 05:09:36;;;;;;;38.22;15.50;;;;;;;;;;5006090;28;20573;-65
2022/03/24 05:12:02;;;;;;;33.70;14.75;;;;;;;;;;5005743;28;20428;-64
2022/03/24 05:14:27;;;;;;;37.17;15.73;;;;;;;;;;5005202;28;20378;-64
2022/03/24 05:16:53;;;;;;;39.17;15.38;;;;;;;;;;5005703;28;20423;-64
2022/03/24 05:19:19;;;;;;;31.30;14.27;;;;;;;;;;5004828;28;20436;-63
2022/03/24 05:21:45;;;;;;;34.85;14.85;;;;;;;;;;5006560;28;20426;-64
2022/03/24 05:24:11;;;;;;;36.22;15.52;;;;;;;;;;5005635;28;20355;-64
2022/03/24 05:26:37;;;;;;;35.85;15.55;;;;;;;;;;5005336;28;20581;-64
2022/03/24 05:29:02;;;;;;;38.17;14.63;;;;;;;;;;5006283;28;20316;-64
2022/03/24 05:31:28;;;;;;;34.28;14.60;;;;;;;;;;5005096;28;20335;-64
2022/03/24 05:33:53;;;;;;;39.53;16.10;;;;;;;;;;5005700;28;20082;-64
2022/03/24 05:36:19;;;;;;;35.80;14.10;;;;;;;;;;5006368;28;20324;-65
2022/03/24 05:38:44;;;;;;;37.95;15.40;;;;;;;;;;5004843;28;20469;-64
2022/03/24 05:41:12;;;;;;;31.90;14.38;;;;;;;;;;5004874;28;20420;-64
2022/03/24 05:43:38;;;;;;;29.73;14.57;;;;;;;;;;5005627;28;20455;-64
2022/03/24 05:46:03;;;;;;;30.30;14.45;;;;;;;;;;5005013;28;20465;-65
2022/03/24 05:48:28;;;;;;;32.17;15.20;;;;;;;;;;5005072;28;20036;-64
2022/03/24 05:50:54;;;;;;;32.50;13.95;;;;;;;;;;4996482;28;20329;-64
2022/03/24 05:53:19;;;;;;;37.83;14.75;;;;;;;;;;4991896;28;20055;-64
2022/03/24 05:55:44;;;;;;;35.00;17.15;;;;;;;;;;4992937;28;20530;-64
2022/03/24 05:58:10;;;;;;;32.05;15.73;;;;;;;;;;4991408;28;20428;-64
2022/03/24 06:00:36;;;;;;;38.92;15.48;;;;;;;;;;4991749;28;20325;-64
2022/03/24 06:03:03;;;;;;;34.67;15.30;;;;;;;;;;4992123;28;20025;-64
2022/03/24 06:05:29;;;;;;;33.38;15.52;;;;;;;;;;4991804;28;20029;-65
2022/03/24 06:07:55;;;;;;;34.55;14.52;;;;;;;;;;4991858;28;20439;-64
2022/03/24 06:10:21;;;;;;;28.42;13.27;;;;;;;;;;4991191;28;20290;-64
2022/03/24 06:12:47;;;;;;;34.33;14.88;;;;;;;;;;4991614;28;20399;-64
2022/03/24 06:15:13;;;;;;;32.97;15.38;;;;;;;;;;4991278;28;20124;-64
2022/03/24 06:17:39;;;;;;;34.17;15.05;;;;;;;;;;4991334;28;20455;-64
2022/03/24 06:20:06;;;;;;;34.80;15.25;;;;;;;;;;4992116;28;20055;-64
2022/03/24 06:22:49;;;;;;;38.80;14.75;;;;;;;;;;4991538;28;20506;-64
2022/03/24 06:25:15;;;;;;;35.55;15.27;;;;;;;;;;4991283;28;20455;-64
2022/03/24 06:27:41;;;;;;;35.05;15.02;;;;;;;;;;4991210;28;20408;-64
2022/03/24 06:30:07;;;;;;;35.95;15.43;;;;;;;;;;4991068;28;20335;-65
2022/03/24 06:32:33;;;;;;;37.22;15.43;;;;;;;;;;4991172;28;20352;-65
2022/03/24 06:34:58;;;;;;;34.85;15.57;;;;;;;;;;4991632;28;20040;-64
2022/03/24 06:37:23;;;;;;;37.17;14.63;;;;;;;;;;4991239;28;20387;-65
2022/03/24 06:39:49;;;;;;;36.75;15.45;;;;;;;;;;4990513;28;20490;-65
2022/03/24 06:42:14;;;;;;;31.92;13.88;;;;;;;;;;4990798;28;20320;-64
2022/03/24 06:44:39;;;;;;;34.78;15.07;;;;;;;;;;4990709;28;20444;-65
2022/03/24 06:47:05;;;;;;;43.60;16.48;;;;;;;;;;4990650;28;20418;-65
2022/03/24 06:49:31;;;;;;;32.22;14.15;;;;;;;;;;4991017;28;20504;-65
2022/03/24 06:51:56;;;;;;;30.73;14.13;;;;;;;;;;4990674;28;20436;-65
2022/03/24 06:54:21;;;;;;;33.97;15.10;;;;;;;;;;4990671;28;20112;-65
2022/03/24 06:56:49;;;;;;;37.13;15.13;;;;;;;;;;4991999;28;20365;-65
2022/03/24 06:59:14;;;;;;;32.58;14.43;;;;;;;;;;4991016;28;20388;-66
2022/03/24 07:01:40;;;;;;;31.98;14.27;;;;;;;;;;4989726;28;20033;-65
2022/03/24 07:04:05;;;;;;;31.38;14.07;;;;;;;;;;4990861;28;20326;-65
2022/03/24 07:06:31;;;;;;;35.90;15.75;;;;;;;;;;4990390;28;20347;-65
2022/03/24 07:08:56;;;;;;;28.15;14.20;;;;;;;;;;4990499;28;20561;-65
2022/03/24 07:11:21;;;;;;;39.83;15.88;;;;;;;;;;4990646;28;20033;-66
2022/03/24 07:13:47;;;;;;;29.05;13.68;;;;;;;;;;4990729;28;20455;-65
2022/03/24 07:16:12;;;;;;;33.92;13.85;;;;;;;;;;4989851;28;20351;-65
2022/03/24 07:18:37;;;;;;;31.50;14.82;;;;;;;;;;4990926;28;20410;-66
2022/03/24 07:21:03;;;;;;;27.50;13.52;;;;;;;;;;4990122;28;20029;-65
2022/03/24 07:23:28;;;;;;;32.88;14.65;;;;;;;;;;4990467;28;20379;-65
2022/03/24 07:25:53;;;;;;;34.30;14.60;;;;;;;;;;4990881;28;20539;-65
2022/03/24 07:28:19;;;;;;;29.40;13.13;;;;;;;;;;4990232;28;20339;-65
2022/03/24 07:30:50;;;;;;;30.63;14.35;;;;;;;;;;4989950;28;20420;-66
2022/03/24 07:33:16;;;;;;;33.92;12.60;;;;;;;;;;4989856;28;20459;-65
2022/03/24 07:35:41;;;;;;;28.23;13.23;;;;;;;;;;4990061;28;20428;-65
2022/03/24 07:38:07;;;;;;;28.08;12.70;;;;;;;;;;4989340;28;20467;-66
2022/03/24 07:40:33;;;;;;;30.17;13.95;;;;;;;;;;4988366;28;20353;-65
2022/03/24 07:42:58;;;;;;;32.25;14.05;;;;;;;;;;4988152;28;20473;-65
2022/03/24 07:45:25;;;;;;;29.38;12.75;;;;;;;;;;4990680;28;20059;-65
2022/03/24 07:48:09;;;;;;;26.23;13.05;;;;;;;;;;4989488;28;20440;-65
2022/03/24 07:50:39;;;;;;;29.45;13.43;;;;;;;;;;4990399;28;20440;-65
2022/03/24 07:53:15;;;;;;;32.67;13.63;;;;;;;;;;4990960;28;20394;-65
2022/03/24 07:55:44;;;;;;;29.92;13.75;;;;;;;;;;4989757;28;20356;-65
2022/03/24 07:58:11;;;;;;;29.55;14.10;;;;;;;;;;4990663;28;20321;-66
2022/03/24 08:00:37;;;;;;;26.92;13.13;;;;;;;;;;4989850;28;20401;-67
2022/03/24 08:03:02;;;;;;;28.40;13.15;;;;;;;;;;4989689;28;20442;-65
2022/03/24 08:05:29;;;;;;;34.50;12.63;;;;;;;;;;4990164;28;20447;-65
2022/03/24 08:07:55;;;;;;;24.30;11.63;;;;;;;;;;4989916;28;20524;-65
2022/03/24 08:10:20;;;;;;;26.70;12.35;;;;;;;;;;4989440;28;20329;-65
2022/03/24 08:12:47;;;;;;;28.25;12.30;;;;;;;;;;4989042;28;20400;-66
2022/03/24 08:15:12;;;;;;;30.35;12.85;;;;;;;;;;4989206;28;20341;-66
2022/03/24 08:17:37;;;;;;;27.23;12.55;;;;;;;;;;4989351;28;20474;-65
2022/03/24 08:20:04;;;;;;;30.63;12.35;;;;;;;;;;4989328;28;20451;-66
2022/03/24 08:22:30;;;;;;;28.50;11.73;;;;;;;;;;4989841;28;20422;-66
2022/03/24 08:24:55;;;;;;;25.67;12.05;;;;;;;;;;4989546;28;20336;-66
2022/03/24 08:27:21;;;;;;;21.02;11.40;;;;;;;;;;4989025;28;20558;-65
2022/03/24 08:29:46;;;;;;;27.75;12.48;;;;;;;;;;4989511;28;20466;-65
2022/03/24 08:32:12;;;;;;;25.15;11.77;;;;;;;;;;4988757;28;20520;-66
2022/03/24 08:34:38;;;;;;;27.17;12.23;;;;;;;;;;4989067;28;20400;-65
2022/03/24 08:37:04;;;;;;;25.88;11.55;;;;;;;;;;4989264;28;20424;-65
2022/03/24 08:39:29;;;;;;;25.13;11.70;;;;;;;;;;4986651;28;20495;-66
2022/03/24 08:41:54;;;;;;;24.55;12.63;;;;;;;;;;4988845;28;20371;-65
2022/03/24 08:44:19;;;;;;;25.10;12.55;;;;;;;;;;4988764;28;20333;-65
2022/03/24 08:46:45;;;;;;;23.17;10.80;;;;;;;;;;4989176;28;20363;-65
2022/03/24 08:49:11;;;;;;;24.10;11.07;;;;;;;;;;4989481;28;20521;-65
2022/03/24 08:51:37;;;;;;;22.77;12.07;;;;;;;;;;4988822;28;20025;-65
2022/03/24 08:54:05;;;;;;;24.48;10.60;;;;;;;;;;4989152;28;20440;-66
2022/03/24 08:56:31;;;;;;;24.67;12.40;;;;;;;;;;4988549;28;20040;-65
2022/03/24 08:58:56;;;;;;;22.25;11.25;;;;;;;;;;4989274;28;20494;-66
2022/03/24 09:01:21;;;;;;;27.63;12.63;;;;;;;;;;4988739;28;20482;-65
2022/03/24 09:03:49;;;;;;;28.35;10.43;;;;;;;;;;4990314;28;20052;-65
2022/03/24 09:06:15;;;;;;;23.17;11.70;;;;;;;;;;4988930;28;20052;-65
2022/03/24 09:08:42;;;;;;;23.88;9.90;;;;;;;;;;4988375;28;20025;-65
2022/03/24 09:11:08;;;;;;;21.55;10.25;;;;;;;;;;4988634;28;20425;-67
2022/03/24 09:13:34;;;;;;;21.98;10.88;;;;;;;;;;4988687;28;20458;-66
2022/03/24 09:15:59;;;;;;;20.67;9.57;;;;;;;;;;4988173;28;20444;-66
2022/03/24 09:18:25;;;;;;;24.70;10.85;;;;;;;;;;4990578;28;20451;-65
2022/03/24 09:20:50;;;;;;;24.25;10.73;;;;;;;;;;4988624;28;20428;-66
2022/03/24 09:23:15;;;;;;;22.25;10.30;;;;;;;;;;4990336;28;20370;-65
2022/03/24 09:25:41;;;;;;;19.67;9.82;;;;;;;;;;4991149;28;20375;-66
2022/03/24 09:28:06;;;;;;;19.05;9.95;;;;;;;;;;4992499;28;20486;-66
2022/03/24 09:30:32;;;;;;;20.25;9.40;;;;;;;;;;4993358;28;20355;-66
2022/03/24 09:32:57;;;;;;;23.17;9.93;;;;;;;;;;4993153;28;20332;-65
2022/03/24 09:35:23;;;;;;;22.30;9.93;;;;;;;;;;4993268;28;20426;-66
2022/03/24 09:37:48;;;;;;;27.30;11.57;;;;;;;;;;4993190;28;20386;-65
2022/03/24 09:40:14;;;;;;;20.38;9.15;;;;;;;;;;4991384;28;20569;-65
2022/03/24 09:42:40;;;;;;;22.30;10.93;;;;;;;;;;4992009;28;20126;-66
2022/03/24 09:45:07;;;;;;;22.73;9.93;;;;;;;;;;4992098;28;20064;-67
2022/03/24 09:47:33;;;;;;;18.65;9.25;;;;;;;;;;4992689;28;20434;-65
2022/03/24 09:49:58;;;;;;;19.08;9.20;;;;;;;;;;4991987;28;20420;-66
2022/03/24 09:52:24;;;;;;;17.00;9.25;;;;;;;;;;4991673;28;20412;-66
2022/03/24 09:54:50;;;;;;;19.52;9.60;;;;;;;;;;4993017;28;20440;-66
2022/03/24 09:57:15;;;;;;;16.75;8.75;;;;;;;;;;4991401;28;20545;-66
2022/03/24 09:59:42;;;;;;;23.27;9.77;;;;;;;;;;4992627;28;20372;-66
2022/03/24 10:02:08;;;;;;;16.75;8.55;;;;;;;;;;4991496;28;20040;-66
2022/03/24 10:04:48;;;;;;;21.25;9.10;;;;;;;;;;4991603;28;20037;-66
2022/03/24 10:07:14;;;;;;;17.75;8.77;;;;;;;;;;4991503;28;20047;-66
2022/03/24 10:09:44;;;;;;;16.85;8.55;;;;;;;;;;4991715;28;20459;-66
2022/03/24 10:12:37;;;;;;;17.70;8.75;;;;;;;;;;4991693;28;20437;-66
2022/03/24 10:15:13;;;;;;;20.10;8.15;;;;;;;;;;4991416;28;20486;-66
2022/03/24 10:17:49;;;;;;;16.48;8.57;;;;;;;;;;4991599;28;20347;-65
2022/03/24 10:20:17;;;;;;;19.10;8.15;;;;;;;;;;4991666;28;20339;-66
2022/03/24 10:22:53;;;;;;;15.65;7.90;;;;;;;;;;4992919;28;20467;-66
2022/03/24 10:25:30;;;;;;;19.35;9.30;;;;;;;;;;4991661;28;20351;-66
2022/03/24 10:28:05;;;;;;;16.13;7.75;;;;;;;;;;4991307;28;20371;-66
2022/03/24 10:30:54;;;;;;;19.10;8.50;;;;;;;;;;4991219;28;20033;-65
2022/03/24 10:33:36;;;;;;;17.15;7.53;;;;;;;;;;4991180;28;20447;-66
2022/03/24 10:36:13;;;;;;;16.55;7.78;;;;;;;;;;4992233;28;20025;-66
2022/03/24 10:38:41;;;;;;;13.30;6.95;;;;;;;;;;4990269;28;20164;-66
2022/03/24 10:41:24;;;;;;;14.75;7.53;;;;;;;;;;4990838;28;20421;-66
2022/03/24 10:43:51;;;;;;;15.32;7.57;;;;;;;;;;4990918;28;20324;-66
2022/03/24 10:46:30;;;;;;;16.20;7.97;;;;;;;;;;4991106;28;20418;-66
2022/03/24 10:48:56;;;;;;;17.95;7.18;;;;;;;;;;4991287;28;20113;-66
2022/03/24 10:51:32;;;;;;;16.40;7.53;;;;;;;;;;4967259;28;20050;-65
2022/03/24 10:54:22;;;;;;;16.00;7.50;;;;;;;;;;4951542;28;20496;-66
2022/03/24 10:57:14;;;;;;;14.18;7.00;;;;;;;;;;4951603;28;20365;-66
2022/03/24 10:59:45;;;;;;;15.02;6.80;;;;;;;;;;4947195;28;20466;-66
2022/03/24 11:02:10;;;;;;;13.65;6.82;;;;;;;;;;4953260;28;20377;-66
2022/03/24 11:04:35;;;;;;;12.15;6.15;;;;;;;;;;4951245;28;20353;-66
2022/03/24 11:07:01;;;;;;;13.40;6.45;;;;;;;;;;4951241;28;20433;-66
2022/03/24 11:09:28;;;;;;;13.93;6.15;;;;;;;;;;4953059;28;20352;-66
2022/03/24 11:12:28;;;;;;;14.40;6.00;;;;;;;;;;4951763;28;20373;-65
2022/03/24 11:14:56;;;;;;;12.32;6.90;;;;;;;;;;4951567;28;20533;-66
2022/03/24 11:17:25;;;;;;;16.30;7.30;;;;;;;;;;4951235;28;20502;-65
2022/03/24 11:20:03;;;;;;;12.38;6.45;;;;;;;;;;4950939;28;20449;-66
2022/03/24 11:22:42;;;;;;;14.90;7.90;;;;;;;;;;4950816;28;20132;-66
2022/03/24 11:25:09;;;;;;;16.23;6.38;;;;;;;;;;4952634;28;20406;-67
2022/03/24 11:27:34;;;;;;;11.98;5.97;;;;;;;;;;4950430;28;20501;-65
2022/03/24 11:30:03;;;;;;;9.70;5.97;;;;;;;;;;4952728;28;20354;-66
2022/03/24 11:32:28;;;;;;;12.30;6.03;;;;;;;;;;4950730;28;20408;-65
2022/03/24 11:34:54;;;;;;;13.55;6.00;;;;;;;;;;4950611;28;20065;-65
2022/03/24 11:37:20;;;;;;;13.55;6.78;;;;;;;;;;4950749;28;20056;-65
2022/03/24 11:40:02;;;;;;;10.93;5.90;;;;;;;;;;4950779;28;20126;-66
2022/03/24 11:42:27;;;;;;;12.70;5.53;;;;;;;;;;4950813;28;20437;-66
2022/03/24 11:45:01;;;;;;;13.82;6.68;;;;;;;;;;4950593;28;20533;-66
2022/03/24 11:47:47;;;;;;;14.07;5.97;;;;;;;;;;4949820;28;20025;-66
2022/03/24 11:50:14;;;;;;;10.07;5.18;;;;;;;;;;4950310;28;20350;-66
2022/03/24 11:52:39;;;;;;;8.48;5.40;;;;;;;;;;4950420;28;20388;-66
2022/03/24 11:55:12;;;;;;;10.13;5.35;;;;;;;;;;4950389;28;20412;-66
2022/03/24 11:57:38;;;;;;;13.55;5.43;;;;;;;;;;4950288;28;20433;-66
2022/03/24 12:00:30;;;;;;;10.52;5.28;;;;;;;;;;4950092;28;20426;-66
2022/03/24 12:02:59;;;;;;;15.45;6.93;;;;;;;;;;4948112;28;20171;-66
2022/03/24 12:05:27;;;;;;;;;;;;;;;;;;4951296;28;20179;-66
2022/03/24 12:08:03;;;;;;;10.33;4.93;;;;;;;;;;4950214;28;20221;-66
2022/03/24 12:10:30;;;;;;;9.55;5.10;;;;;;;;;;4950232;28;20408;-65
2022/03/24 12:13:21;;;;;;;10.57;5.72;;;;;;;;;;4950278;28;20465;-67
2022/03/24 12:16:13;;;;;;;8.90;4.78;;;;;;;;;;4948004;28;20508;-65
2022/03/24 12:18:40;;;;;;;12.00;5.28;;;;;;;;;;4950281;28;20389;-66
2022/03/24 12:21:05;;;;;;;10.00;4.88;;;;;;;;;;4949762;28;20109;-66
2022/03/24 12:24:09;;;;;;;9.15;5.03;;;;;;;;;;4950156;28;20033;-66
2022/03/24 12:26:59;;;;;;;10.38;5.15;;;;;;;;;;4951022;28;20316;-66
2022/03/24 12:29:26;;;;;;;8.73;4.90;;;;;;;;;;4944506;28;20063;-66
2022/03/24 12:32:11;;;;;;;15.50;5.78;;;;;;;;;;4950538;28;20397;-66
2022/03/24 12:34:39;;;;;;;8.38;4.63;;;;;;;;;;4949950;28;20139;-66
2022/03/24 12:37:22;;;;;;;11.70;5.43;;;;;;;;;;4951088;28;20034;-66
2022/03/24 12:39:48;;;;;;;7.68;4.22;;;;;;;;;;4949758;28;20365;-66
2022/03/24 12:42:15;;;;;;;10.73;5.60;;;;;;;;;;4950531;28;20385;-66
2022/03/24 12:45:07;;;;;;;8.07;4.68;;;;;;;;;;4950735;28;20389;-65
2022/03/24 12:47:37;;;;;;;11.48;5.07;;;;;;;;;;4947996;28;20469;-66
2022/03/24 12:50:15;;;;;;;8.63;4.25;;;;;;;;;;4949619;28;20548;-66
2022/03/24 12:52:59;;;;;;;8.67;4.33;;;;;;;;;;4949810;28;20410;-66
2022/03/24 12:55:27;;;;;;;8.55;4.20;;;;;;;;;;4950183;28;20714;-66
2022/03/24 12:57:56;;;;;;;8.68;4.20;;;;;;;;;;4950102;28;20500;-66
2022/03/24 13:00:26;;;;;;;7.70;4.30;;;;;;;;;;4948968;28;20327;-65
2022/03/24 13:02:52;;;;;;;9.50;4.13;;;;;;;;;;4954265;28;20066;-66
2022/03/24 13:05:23;;;;;;;7.55;3.65;;;;;;;;;;4954641;28;20113;-66
2022/03/24 13:07:50;;;;;;;9.68;4.32;;;;;;;;;;4953270;28;20429;-65
2022/03/24 13:10:15;;;;;;;11.23;4.38;;;;;;;;;;4953237;28;20313;-66
2022/03/24 13:12:46;;;;;;;9.48;4.40;;;;;;;;;;4951834;28;20345;-65
2022/03/24 13:15:22;;;;;;;9.65;4.10;;;;;;;;;;4954186;28;20418;-66
2022/03/24 13:17:51;;;;;;;6.10;3.92;;;;;;;;;;4953349;28;20029;-66
2022/03/24 13:20:18;;;;;;;6.85;3.58;;;;;;;;;;4953655;28;20427;-66
2022/03/24 13:22:47;;;;;;;7.63;3.78;;;;;;;;;;4952630;28;20457;-65
2022/03/24 13:25:13;;;;;;;6.35;3.90;;;;;;;;;;4953231;28;20426;-65
2022/03/24 13:27:42;;;;;;;11.40;3.97;;;;;;;;;;4953084;28;20370;-66
2022/03/24 13:30:09;;;;;;;8.48;3.75;;;;;;;;;;4953415;28;20464;-66
2022/03/24 13:32:35;;;;;;;6.40;3.70;;;;;;;;;;4953038;28;20346;-66
2022/03/24 13:35:02;;;;;;;10.45;4.10;;;;;;;;;;4953040;28;20389;-66
2022/03/24 13:37:34;;;;;;;6.93;3.85;;;;;;;;;;4953203;28;20026;-66
2022/03/24 13:40:00;;;;;;;8.38;4.03;;;;;;;;;;4952062;28;20409;-66
2022/03/24 13:42:26;;;;;;;11.75;3.60;;;;;;;;;;4954181;28;20392;-67
2022/03/24 13:44:53;;;;;;;6.38;3.70;;;;;;;;;;4953175;28;20445;-67
2022/03/24 13:47:23;;;;;;;10.45;3.72;;;;;;;;;;4953427;28;20361;-65
2022/03/24 13:49:54;;;;;;;7.95;4.18;;;;;;;;;;4953763;28;20508;-65
2022/03/24 13:52:51;;;;;;;6.30;3.83;;;;;;;;;;4952569;28;20456;-66
2022/03/24 13:55:34;;;;;;;7.47;3.10;;;;;;;;;;4944596;28;20403;-66
2022/03/24 13:58:01;;;;;;;6.57;3.22;;;;;;;;;;4954224;28;20507;-65
2022/03/24 14:00:47;;;;;;;7.95;3.92;;;;;;;;;;4952624;28;20494;-65
2022/03/24 14:03:14;;;;;;;6.07;3.13;;;;;;;;;;4952582;28;20496;-65
2022/03/24 14:05:42;;;;;;;9.05;3.45;;;;;;;;;;4952510;28;20511;-65
2022/03/24 14:08:08;;;;;;;7.85;3.83;;;;;;;;;;4952533;28;20551;-66
2022/03/24 14:10:51;;;;;;;5.70;3.50;;;;;;;;;;4952462;28;20430;-66
2022/03/24 14:13:19;;;;;;;5.93;3.53;;;;;;;;;;4953046;28;20026;-66
2022/03/24 14:15:45;;;;;;;7.30;3.83;;;;;;;;;;4952435;28;20423;-65
2022/03/24 14:18:14;;;;;;;7.00;3.53;;;;;;;;;;4952795;28;20456;-66
2022/03/24 14:20:41;;;;;;;9.82;3.47;;;;;;;;;;4952961;28;20452;-67
2022/03/24 14:23:07;;;;;;;4.88;2.88;;;;;;;;;;4953066;28;20326;-65
2022/03/24 14:25:32;;;;;;;5.32;3.00;;;;;;;;;;4952116;28;20353;-66
2022/03/24 14:27:57;;;;;;;5.47;3.35;;;;;;;;;;4952510;28;20424;-65
2022/03/24 14:30:29;;;;;;;6.03;3.05;;;;;;;;;;4952855;28;20059;-66